Gage Information Page
Francis E. Walter Reservoir, PA

Provisional Data Subject to Revision
Francis E. Walter Reservoir, PA
Amber Threshold Elevation:1392 feet
Red Threshold Elevation:1441 feet
Date (ET) Elevation (ft) Storage (ac-ft) Inflow (cfs) Outflow (cfs)
Aug 26, 2016 11:15 pm 1336.74 8057 155 245
Aug 26, 2016 10:15 pm 1336.77 8065 155 245
Aug 26, 2016   9:15 pm 1336.80 8072 155 245
Aug 26, 2016   8:15 pm 1336.83 8080 155 245
Aug 26, 2016   7:15 pm 1336.86 8088 155 245
Aug 26, 2016   6:15 pm 1336.88 8093 151 245
Aug 26, 2016   5:15 pm 1336.91 8101 155 245
Aug 26, 2016   4:15 pm 1336.95 8111 159 245
Aug 26, 2016   3:15 pm 1336.97 8116 152 245
Aug 26, 2016   2:15 pm 1337.00 8124 152 245
Aug 26, 2016   1:15 pm 1337.03 8132 151 245
Aug 26, 2016 12:15 pm 1337.06 8139 155 245
Aug 26, 2016 11:15 am 1337.09 8147 158 245
Aug 26, 2016 10:15 am 1337.12 8155 157 245
Aug 26, 2016   9:15 am 1337.14 8160 153 245
Aug 26, 2016   8:15 am 1337.17 8168 152 245
Aug 26, 2016   7:15 am 1337.21 8178 155 272
Aug 26, 2016   6:15 am 1337.25 8189 159 272
Aug 26, 2016   5:15 am 1337.29 8199 159 272
Aug 26, 2016   4:15 am 1337.32 8207 159 272
Aug 26, 2016   3:15 am 1337.35 8214 155 272
Aug 26, 2016   2:15 am 1337.39 8225 155 272
Aug 26, 2016   1:15 am 1337.43 8235 159 272
Aug 26, 2016 12:15 am 1337.47 8245 159 272
Report Generated Aug 27, 2016 12:27 AM

NWS Web Info
USGS Web Info